LGMT/MJT METAR and TAF weather

Enter ICAO airport designator
Station Type Date Time Source
LGMT METAR 2021/04/13 21:50 UTC NOAA

LGMT 132150Z VRB02KT 9999 FEW025 15/08 Q1017


Station Type Date Time Source
LGMT Decoded METAR 2021/04/13 21:50 UTC NOAA

Mytilini Airport , Greece (LGMT) 39-04N 026-36E 5M
Apr 13, 2021 - 05:50 PM EDT / 2021.04.13 2150 UTC
Wind: Variable at 2 MPH (2 KT):0
Visibility: greater than 7 mile(s):0
Sky conditions: mostly clear
Temperature: 59 F (15 C)
Dew Point: 46 F (8 C)
Relative Humidity: 62%
Pressure (altimeter): 30.03 in. Hg (1017 hPa)
ob: LGMT 132150Z VRB02KT 9999 FEW025 15/08 Q1017
cycle: 22

Station Type Date Time Source
LGMT TAF 2012/09/21 03:06 UTC NOAA

TAF LGMT 210200Z 2103/2115 VRB05KT 9999 SCT020
BECMG 2103/2105 30015KT PROB30
TEMPO 2103/2106 7000 RA SCT018 BKN030
BECMG 2107/2109 29012KT

Example: see airport list